Time;durP1;ratioP1;P1;durP2;ratioP2;P2;SDS_P1;SDS_P2;PMS_P1;PMS_P2;Temp;Humidity;BMP_temperature;BMP_pressure;BME280_temperature;BME280_humidity;BME280_pressure;Samples;Min_cycle;Max_cycle;Signal;HPM_P1;HPM_P2
2024/01/15 00:01:34;;;;;;;16.43;9.43;;;;;;;-1.52;100.00;97071.22;5115413;28;20443;-74
2024/01/15 00:04:01;;;;;;;16.80;9.13;;;;;;;-1.63;100.00;97061.94;5115398;28;20523;-75
2024/01/15 00:06:28;;;;;;;16.33;8.83;;;;;;;-1.63;100.00;97061.94;5115017;28;21015;-74
2024/01/15 00:08:54;;;;;;;15.07;8.93;;;;;;;-1.65;100.00;97060.50;5115574;28;20436;-75
2024/01/15 00:11:21;;;;;;;16.13;9.07;;;;;;;-1.70;100.00;97068.00;5115518;28;20438;-74
2024/01/15 00:13:47;;;;;;;14.70;8.77;;;;;;;-1.74;100.00;97059.72;5115449;28;20431;-74
2024/01/15 00:16:13;;;;;;;18.60;10.13;;;;;;;-1.82;100.00;97049.31;5115159;28;20438;-74
2024/01/15 00:18:40;;;;;;;15.43;9.30;;;;;;;-1.83;100.00;97052.91;5115262;28;20427;-74
2024/01/15 00:21:06;;;;;;;15.87;9.07;;;;;;;-1.88;100.00;97056.97;5115156;28;20451;-74
2024/01/15 00:23:32;;;;;;;15.00;9.07;;;;;;;-1.90;100.00;97049.31;5114849;28;20443;-74
2024/01/15 00:25:59;;;;;;;17.00;9.10;;;;;;;-1.90;100.00;97051.94;5115077;28;20475;-74
2024/01/15 00:28:25;;;;;;;17.57;9.60;;;;;;;-1.99;100.00;97049.53;5114885;28;20476;-74
2024/01/15 00:30:51;;;;;;;17.23;9.83;;;;;;;-1.92;100.00;97048.69;5114622;28;20455;-74
2024/01/15 00:33:18;;;;;;;15.03;9.27;;;;;;;-2.10;100.00;97047.25;5115024;28;20446;-74
2024/01/15 00:35:44;;;;;;;15.70;8.83;;;;;;;-2.12;100.00;97039.59;5115161;28;20944;-74
2024/01/15 00:38:11;;;;;;;13.40;8.43;;;;;;;-2.16;100.00;97042.72;5114683;28;20942;-74
2024/01/15 00:40:37;;;;;;;13.87;8.13;;;;;;;-2.23;100.00;97036.53;5114864;28;20481;-74
2024/01/15 00:43:04;;;;;;;16.00;8.60;;;;;;;-2.17;100.00;97041.88;5114891;28;20443;-74
2024/01/15 00:45:31;;;;;;;15.33;8.07;;;;;;;-2.01;100.00;97047.06;5114554;28;20467;-74
2024/01/15 00:47:59;;;;;;;15.27;7.90;;;;;;;-1.96;100.00;97042.19;5114898;28;20502;-74
2024/01/15 00:50:26;;;;;;;14.53;8.53;;;;;;;-2.00;100.00;97043.50;5114763;28;20809;-74
2024/01/15 00:52:52;;;;;;;15.23;8.57;;;;;;;-2.00;100.00;97042.66;5114792;28;20427;-74
2024/01/15 00:55:18;;;;;;;17.57;8.57;;;;;;;-1.99;100.00;97045.09;5114640;28;20523;-74
2024/01/15 00:57:45;;;;;;;15.43;7.93;;;;;;;-1.93;100.00;97044.47;5114637;28;20432;-74
2024/01/15 01:00:12;;;;;;;14.83;8.23;;;;;;;-1.98;100.00;97036.31;5114241;28;20455;-74
2024/01/15 01:02:38;;;;;;;14.73;8.67;;;;;;;-1.91;100.00;97039.88;5114571;28;20431;-74
2024/01/15 01:05:05;;;;;;;14.87;8.87;;;;;;;-1.89;100.00;97035.31;5114083;28;21008;-74
2024/01/15 01:07:31;;;;;;;12.27;7.80;;;;;;;-1.78;100.00;97037.59;5114242;28;20446;-74
2024/01/15 01:09:57;;;;;;;14.63;7.97;;;;;;;-1.70;100.00;97040.16;5113961;28;20451;-74
2024/01/15 01:12:24;;;;;;;14.53;8.07;;;;;;;-1.62;100.00;97047.94;5114354;28;20435;-74
2024/01/15 01:14:50;;;;;;;13.43;8.00;;;;;;;-1.57;100.00;97035.22;5114372;28;20431;-74
2024/01/15 01:17:17;;;;;;;15.57;8.27;;;;;;;-1.56;100.00;97033.44;5114297;28;20427;-74
2024/01/15 01:19:43;;;;;;;13.83;7.97;;;;;;;-1.49;100.00;97031.78;5114286;28;20456;-74
2024/01/15 01:22:09;;;;;;;15.77;8.37;;;;;;;-1.50;100.00;97036.19;5114039;28;20443;-74
2024/01/15 01:24:36;;;;;;;14.93;8.17;;;;;;;-1.46;100.00;97028.81;5114182;28;20432;-74
2024/01/15 01:27:02;;;;;;;12.67;7.27;;;;;;;-1.40;100.00;97028.97;5114264;28;20431;-74
2024/01/15 01:29:29;;;;;;;14.53;8.40;;;;;;;-1.35;100.00;97024.03;5113822;28;20535;-74
2024/01/15 01:31:56;;;;;;;13.63;7.93;;;;;;;-1.31;100.00;97030.56;5114080;28;20427;-74
2024/01/15 01:34:22;;;;;;;12.37;7.97;;;;;;;-1.27;100.00;97020.59;5114094;28;20431;-74
2024/01/15 01:36:49;;;;;;;13.43;7.67;;;;;;;-1.24;100.00;97028.06;5114155;28;20438;-74
2024/01/15 01:39:15;;;;;;;13.93;8.07;;;;;;;-1.16;100.00;97028.03;5113716;28;20952;-74
2024/01/15 01:41:41;;;;;;;13.43;7.97;;;;;;;-1.18;100.00;97030.81;5114077;28;20442;-74
2024/01/15 01:44:08;;;;;;;12.33;7.60;;;;;;;-1.10;100.00;97028.16;5114010;28;20431;-74
2024/01/15 01:46:39;;;;;;;13.40;6.90;;;;;;;-1.05;100.00;97036.28;5113668;28;20475;-74
2024/01/15 01:49:06;;;;;;;13.67;6.83;;;;;;;-1.02;100.00;97025.53;5113989;28;20452;-74
2024/01/15 01:51:34;;;;;;;12.90;7.50;;;;;;;-1.06;100.00;97024.25;5113965;28;20478;-74
2024/01/15 01:54:01;;;;;;;13.77;7.40;;;;;;;-1.10;100.00;97027.34;5112755;28;20435;-74
2024/01/15 01:56:28;;;;;;;13.57;7.43;;;;;;;-1.10;100.00;97032.56;5113931;28;20427;-74
2024/01/15 01:58:54;;;;;;;13.30;7.23;;;;;;;-1.08;100.00;97031.41;5113846;28;20207;-75
2024/01/15 02:01:21;;;;;;;12.33;7.43;;;;;;;-1.11;100.00;97023.94;5113827;28;20229;-75
2024/01/15 02:03:47;;;;;;;12.23;7.70;;;;;;;-1.06;100.00;97023.41;5113842;28;20211;-75
2024/01/15 02:06:14;;;;;;;11.93;7.13;;;;;;;-1.09;100.00;97023.75;5113668;28;20231;-75
2024/01/15 02:08:40;;;;;;;13.13;7.20;;;;;;;-1.11;100.00;97025.72;5113464;28;20210;-75
2024/01/15 02:11:07;;;;;;;14.47;7.33;;;;;;;-1.14;100.00;97026.88;5113703;28;20459;-75
2024/01/15 02:13:33;;;;;;;12.97;7.83;;;;;;;-1.16;100.00;97026.25;5113668;28;20442;-74
2024/01/15 02:15:59;;;;;;;13.80;7.40;;;;;;;-1.13;100.00;97032.94;5113354;28;20567;-75
2024/01/15 02:18:26;;;;;;;13.37;7.90;;;;;;;-1.23;100.00;97029.69;5113325;28;20565;-75
2024/01/15 02:20:52;;;;;;;13.47;7.90;;;;;;;-1.27;100.00;97021.41;5116747;28;20230;-75
2024/01/15 02:23:18;;;;;;;13.10;7.33;;;;;;;-1.22;100.00;97018.31;5117265;28;20450;-75
2024/01/15 02:25:47;;;;;;;14.73;7.70;;;;;;;-1.28;100.00;97019.78;5117459;28;20483;-75
2024/01/15 02:28:16;;;;;;;15.87;7.63;;;;;;;-1.28;100.00;97017.19;5117571;28;20437;-74
2024/01/15 02:30:43;;;;;;;11.13;7.10;;;;;;;-1.27;100.00;97024.00;5117487;28;20816;-74
2024/01/15 02:33:11;;;;;;;14.50;7.73;;;;;;;-1.24;100.00;97010.66;5117239;28;20435;-74
2024/01/15 02:35:37;;;;;;;11.33;6.90;;;;;;;-1.32;100.00;97010.69;5117133;28;20926;-74
2024/01/15 02:38:05;;;;;;;13.03;7.40;;;;;;;-1.38;100.00;97013.16;5117414;28;20428;-74
2024/01/15 02:40:32;;;;;;;14.03;7.17;;;;;;;-1.33;100.00;97010.84;5117254;28;20451;-74
2024/01/15 02:42:59;;;;;;;13.20;7.07;;;;;;;-1.38;100.00;97010.56;5117370;27;20445;-74
2024/01/15 02:45:25;;;;;;;12.63;7.50;;;;;;;-1.46;100.00;97008.81;5116843;28;20475;-74
2024/01/15 02:47:52;;;;;;;13.40;7.20;;;;;;;-1.46;100.00;97006.19;5117190;28;20441;-74
2024/01/15 02:50:18;;;;;;;13.63;7.67;;;;;;;-1.45;100.00;97001.78;5117008;28;20473;-74
2024/01/15 02:52:45;;;;;;;13.87;7.47;;;;;;;-1.49;100.00;97001.31;5117116;28;20548;-74
2024/01/15 02:55:11;;;;;;;13.70;7.17;;;;;;;-1.55;100.00;97002.00;5117079;28;20427;-74
2024/01/15 02:57:37;;;;;;;13.67;7.40;;;;;;;-1.58;100.00;97004.94;5117287;28;20446;-74
2024/01/15 03:00:04;;;;;;;12.43;7.90;;;;;;;-1.56;100.00;97005.59;5116873;28;20465;-74
2024/01/15 03:02:31;;;;;;;14.27;7.67;;;;;;;-1.56;100.00;97009.97;5116999;28;20817;-74
2024/01/15 03:04:58;;;;;;;14.17;7.50;;;;;;;-1.63;100.00;97009.84;5116425;28;20478;-74
2024/01/15 03:07:24;;;;;;;12.90;7.20;;;;;;;-1.64;100.00;96992.59;5116811;28;20812;-74
2024/01/15 03:09:51;;;;;;;13.80;7.37;;;;;;;-1.68;100.00;97001.72;5116723;28;20466;-74
2024/01/15 03:12:18;;;;;;;12.17;7.00;;;;;;;-1.61;100.00;96996.66;5116480;28;20435;-74
2024/01/15 03:14:44;;;;;;;12.43;7.57;;;;;;;-1.68;100.00;96996.50;5116349;28;20534;-74
2024/01/15 03:17:12;;;;;;;12.90;7.53;;;;;;;-1.74;100.00;96993.75;5116642;28;20428;-74
2024/01/15 03:19:38;;;;;;;11.83;7.30;;;;;;;-1.78;100.00;96998.50;5116509;28;20459;-74
2024/01/15 03:22:04;;;;;;;12.17;7.40;;;;;;;-1.69;100.00;96994.06;5116281;28;20534;-74
2024/01/15 03:24:33;;;;;;;12.80;7.13;;;;;;;-1.66;100.00;96993.75;5116467;28;20471;-74
2024/01/15 03:26:59;;;;;;;12.23;7.00;;;;;;;-1.58;100.00;96986.69;5116858;28;20475;-74
2024/01/15 03:29:27;;;;;;;11.13;6.97;;;;;;;-1.62;100.00;96987.22;5116219;28;20492;-74
2024/01/15 03:31:53;;;;;;;12.73;7.70;;;;;;;-1.53;100.00;96987.00;5115458;28;20442;-74
2024/01/15 03:34:19;;;;;;;11.83;7.40;;;;;;;-1.51;100.00;96984.22;5116223;28;20462;-74
2024/01/15 03:36:46;;;;;;;13.50;7.43;;;;;;;-1.47;100.00;96975.91;5116189;28;20441;-74
2024/01/15 03:39:12;;;;;;;12.03;7.20;;;;;;;-1.36;100.00;96980.72;5116086;28;20433;-74
2024/01/15 03:41:39;;;;;;;13.70;7.13;;;;;;;-1.25;100.00;96972.53;5115767;28;20918;-74
2024/01/15 03:44:05;;;;;;;10.23;6.37;;;;;;;-1.23;100.00;96970.56;5115637;28;20948;-74
2024/01/15 03:46:32;;;;;;;13.33;7.00;;;;;;;-1.10;100.00;96977.78;5115934;28;20471;-74
2024/01/15 03:48:58;;;;;;;11.10;6.80;;;;;;;-1.12;100.00;96971.97;5115935;28;20438;-74
2024/01/15 03:51:25;;;;;;;13.43;6.90;;;;;;;-1.18;100.00;96976.06;5115837;28;20428;-74
2024/01/15 03:53:52;;;;;;;9.33;5.97;;;;;;;-1.08;100.00;96973.25;5115948;28;20431;-74
2024/01/15 03:56:18;;;;;;;13.67;7.10;;;;;;;-1.12;100.00;96970.13;5115783;28;20436;-74
2024/01/15 03:58:44;;;;;;;13.77;7.57;;;;;;;-1.15;100.00;96964.47;5115740;28;20209;-74
2024/01/15 04:01:11;;;;;;;10.57;6.40;;;;;;;-1.13;100.00;96957.31;5115326;28;20227;-74
2024/01/15 04:03:38;;;;;;;12.93;6.80;;;;;;;-1.07;100.00;96967.03;5115135;28;20790;-74
2024/01/15 04:06:05;;;;;;;11.40;6.50;;;;;;;-1.02;100.00;96956.88;5115143;28;20225;-74
2024/01/15 04:08:31;;;;;;;11.27;6.23;;;;;;;-0.95;100.00;96953.41;5115478;28;20207;-74
2024/01/15 04:10:58;;;;;;;9.50;6.23;;;;;;;-0.92;100.00;96960.91;5114854;28;20234;-74
2024/01/15 04:13:24;;;;;;;9.27;5.63;;;;;;;-0.93;100.00;96956.66;5115704;28;20203;-75
2024/01/15 04:15:51;;;;;;;9.10;5.53;;;;;;;-0.84;100.00;96947.78;5115376;28;20431;-75
2024/01/15 04:18:17;;;;;;;10.17;5.73;;;;;;;-0.68;100.00;96952.03;5115143;28;20427;-75
2024/01/15 04:20:44;;;;;;;9.90;5.83;;;;;;;-0.65;100.00;96949.09;5115132;28;20230;-75
2024/01/15 04:23:11;;;;;;;8.27;4.93;;;;;;;-0.58;100.00;96947.41;5114963;28;20447;-74
2024/01/15 04:25:37;;;;;;;8.83;5.67;;;;;;;-0.49;100.00;96951.56;5114790;28;21016;-74
2024/01/15 04:28:04;;;;;;;8.00;5.03;;;;;;;-0.44;100.00;96947.41;5114729;28;20772;-74
2024/01/15 04:30:30;;;;;;;9.23;5.40;;;;;;;-0.39;100.00;96939.06;5114961;28;20882;-74
2024/01/15 04:32:57;;;;;;;7.60;4.67;;;;;;;-0.39;100.00;96939.91;5114322;28;20747;-74
2024/01/15 04:35:23;;;;;;;8.50;5.10;;;;;;;-0.34;100.00;96939.34;5114506;28;20432;-74
2024/01/15 04:37:49;;;;;;;8.47;5.10;;;;;;;-0.32;100.00;96932.13;5114665;28;20207;-74
2024/01/15 04:40:16;;;;;;;10.60;5.97;;;;;;;-0.33;100.00;96933.13;5114223;28;20237;-74
2024/01/15 04:42:42;;;;;;;9.53;5.27;;;;;;;-0.37;100.00;96937.06;5113282;28;20203;-74
2024/01/15 04:45:09;;;;;;;9.00;5.37;;;;;;;-0.28;100.00;96939.44;5113964;28;20532;-74
2024/01/15 04:47:36;;;;;;;10.43;6.20;;;;;;;-0.36;100.00;96936.91;5114464;28;20479;-74
2024/01/15 04:50:03;;;;;;;10.67;6.00;;;;;;;-0.37;100.00;96943.13;5114538;28;20223;-74
2024/01/15 04:52:29;;;;;;;10.90;6.30;;;;;;;-0.29;100.00;96937.00;5114526;28;20209;-74
2024/01/15 04:54:56;;;;;;;9.00;5.97;;;;;;;-0.30;100.00;96933.56;5114518;28;20203;-74
2024/01/15 04:57:22;;;;;;;10.30;6.40;;;;;;;-0.27;100.00;96932.44;5114239;28;20684;-74
2024/01/15 04:59:48;;;;;;;10.13;5.87;;;;;;;-0.23;100.00;96926.66;5113868;28;20714;-74
2024/01/15 05:02:15;;;;;;;9.17;5.47;;;;;;;-0.25;100.00;96930.44;5114126;28;20453;-74
2024/01/15 05:04:41;;;;;;;11.50;6.60;;;;;;;-0.26;100.00;96921.78;5114468;27;20207;-74
2024/01/15 05:07:08;;;;;;;10.43;5.93;;;;;;;-0.28;100.00;96926.38;5114137;28;20482;-74
2024/01/15 05:09:34;;;;;;;9.47;6.00;;;;;;;-0.19;100.00;96932.31;5115049;28;20885;-74
2024/01/15 05:12:01;;;;;;;11.27;7.20;;;;;;;-0.22;100.00;96930.88;5114155;28;20222;-74
2024/01/15 05:14:27;;;;;;;10.83;6.40;;;;;;;-0.28;100.00;96931.63;5114081;28;20199;-74
2024/01/15 05:16:54;;;;;;;10.33;6.20;;;;;;;-0.24;100.00;96932.88;5114110;28;20427;-75
2024/01/15 05:19:20;;;;;;;9.27;6.10;;;;;;;-0.18;100.00;96932.16;5113686;28;20223;-74
2024/01/15 05:21:46;;;;;;;10.70;6.00;;;;;;;-0.18;100.00;96931.38;5113589;28;20703;-74
2024/01/15 05:24:13;;;;;;;9.13;5.50;;;;;;;-0.17;100.00;96925.94;5113823;28;20229;-75
2024/01/15 05:26:39;;;;;;;10.17;5.83;;;;;;;-0.19;100.00;96922.69;5113564;28;20229;-75
2024/01/15 05:29:05;;;;;;;8.87;5.53;;;;;;;-0.24;100.00;96919.81;5113865;28;20214;-75
2024/01/15 05:31:32;;;;;;;9.23;5.60;;;;;;;-0.24;100.00;96906.75;5113801;28;20200;-74
2024/01/15 05:33:58;;;;;;;11.77;6.13;;;;;;;-0.25;100.00;96899.09;5113586;28;20206;-74
2024/01/15 05:36:24;;;;;;;8.63;5.80;;;;;;;-0.24;100.00;96898.09;5113506;28;20205;-74
2024/01/15 05:38:51;;;;;;;8.40;5.10;;;;;;;-0.18;100.00;96900.81;5113831;28;20200;-74
2024/01/15 05:41:17;;;;;;;9.27;5.80;;;;;;;-0.18;100.00;96900.81;5113731;28;20249;-74
2024/01/15 05:43:43;;;;;;;9.03;5.33;;;;;;;-0.11;100.00;96891.28;5113190;28;20206;-74
2024/01/15 05:46:10;;;;;;;11.83;5.40;;;;;;;-0.10;100.00;96895.50;5113023;28;20227;-75
2024/01/15 05:48:36;;;;;;;7.27;4.87;;;;;;;-0.09;100.00;96899.72;5113656;28;20205;-74
2024/01/15 05:51:02;;;;;;;9.10;5.70;;;;;;;-0.07;100.00;96900.38;5113613;28;20224;-74
2024/01/15 05:53:28;;;;;;;8.20;5.40;;;;;;;-0.09;100.00;96907.56;5113401;28;20207;-74
2024/01/15 05:55:55;;;;;;;12.40;5.13;;;;;;;-0.07;100.00;96920.44;5116950;28;20242;-75
2024/01/15 05:58:22;;;;;;;9.63;5.50;;;;;;;-0.08;100.00;96924.06;5117094;28;20987;-74
2024/01/15 06:00:49;;;;;;;8.30;5.53;;;;;;;-0.10;100.00;96921.63;5117395;28;20453;-75
2024/01/15 06:03:16;;;;;;;10.00;6.30;;;;;;;-0.08;100.00;96914.41;5117481;28;20794;-75
2024/01/15 06:05:42;;;;;;;10.90;5.70;;;;;;;-0.04;100.00;96910.44;5117563;28;20203;-75
2024/01/15 06:08:09;;;;;;;9.10;5.57;;;;;;;-0.04;100.00;96914.88;5117528;28;20575;-74
2024/01/15 06:10:35;;;;;;;9.00;5.63;;;;;;;-0.07;100.00;96910.00;5117283;28;20245;-74
2024/01/15 06:13:02;;;;;;;7.87;5.10;;;;;;;-0.09;100.00;96909.38;5117340;28;20203;-75
2024/01/15 06:15:28;;;;;;;8.87;5.87;;;;;;;-0.05;100.00;96905.41;5117396;28;20214;-75
2024/01/15 06:17:54;;;;;;;11.20;6.07;;;;;;;-0.04;100.00;96904.44;5117288;28;20196;-75
2024/01/15 06:20:21;;;;;;;10.53;6.10;;;;;;;-0.11;100.00;96909.56;5117143;28;20234;-75
2024/01/15 06:22:47;;;;;;;10.13;5.53;;;;;;;-0.06;100.00;96909.00;5116794;28;20219;-75
2024/01/15 06:25:13;;;;;;;10.50;5.97;;;;;;;-0.08;100.00;96914.41;5117195;28;20203;-75
2024/01/15 06:27:40;;;;;;;8.77;5.67;;;;;;;-0.08;100.00;96906.56;5116150;28;20223;-75
2024/01/15 06:30:06;;;;;;;11.30;6.40;;;;;;;-0.03;100.00;96898.22;5116882;28;20233;-75
2024/01/15 06:32:33;;;;;;;10.07;5.80;;;;;;;-0.05;100.00;96893.16;5116996;28;20199;-75
2024/01/15 06:34:59;;;;;;;9.83;6.00;;;;;;;-0.05;100.00;96894.94;5116282;28;20251;-75
2024/01/15 06:37:27;;;;;;;11.37;6.10;;;;;;;-0.12;100.00;96884.41;5116572;28;20211;-74
2024/01/15 06:39:58;;;;;;;9.67;6.27;;;;;;;-0.08;100.00;96888.28;5116321;28;20590;-75
2024/01/15 06:42:28;;;;;;;10.50;5.77;;;;;;;-0.07;100.00;96884.69;5116021;28;20187;-75
2024/01/15 06:44:58;;;;;;;11.47;6.30;;;;;;;-0.08;100.00;96883.06;5115885;28;20199;-75
2024/01/15 06:47:32;;;;;;;8.87;5.37;;;;;;;-0.08;100.00;96869.22;5116005;28;20263;-75
2024/01/15 06:50:06;;;;;;;10.10;5.83;;;;;;;-0.10;100.00;96877.22;5116665;28;20229;-75
2024/01/15 06:52:36;;;;;;;9.87;6.13;;;;;;;-0.08;100.00;96879.66;5116222;28;20278;-75
2024/01/15 06:55:06;;;;;;;11.23;6.43;;;;;;;-0.08;100.00;96864.00;5116452;28;20203;-75
2024/01/15 06:57:38;;;;;;;7.23;5.10;;;;;;;-0.04;100.00;96871.25;5116104;28;20199;-74
2024/01/15 07:00:10;;;;;;;10.80;6.17;;;;;;;-0.03;100.00;96878.09;5116385;28;20219;-74
2024/01/15 07:02:37;;;;;;;7.87;5.40;;;;;;;-0.01;100.00;96878.75;5116022;28;20319;-74
2024/01/15 07:05:04;;;;;;;10.10;5.93;;;;;;;0.00;100.00;96880.34;5116559;28;20205;-74
2024/01/15 07:07:31;;;;;;;8.53;5.20;;;;;;;-0.03;100.00;96872.88;5114956;28;20223;-74
2024/01/15 07:09:57;;;;;;;7.77;5.43;;;;;;;-0.05;100.00;96877.47;5116094;28;20227;-74
2024/01/15 07:12:24;;;;;;;9.63;6.13;;;;;;;-0.03;100.00;96878.09;5115905;28;20203;-74
2024/01/15 07:14:50;;;;;;;9.53;5.67;;;;;;;-0.04;100.00;96881.72;5116063;28;20234;-75
2024/01/15 07:17:16;;;;;;;9.83;5.60;;;;;;;0.10;100.00;96883.50;5115728;28;20211;-75
2024/01/15 07:19:43;;;;;;;8.57;5.47;;;;;;;0.06;100.00;96882.22;5115773;28;20223;-75
2024/01/15 07:22:10;;;;;;;9.73;6.13;;;;;;;0.00;100.00;96888.19;5115481;28;20674;-74
2024/01/15 07:24:36;;;;;;;11.20;5.90;;;;;;;0.08;100.00;96890.72;5115818;28;20286;-75
2024/01/15 07:27:04;;;;;;;8.03;5.27;;;;;;;0.06;100.00;96890.06;5115395;28;20223;-75
2024/01/15 07:29:32;;;;;;;8.53;5.33;;;;;;;0.03;100.00;96891.44;5115737;28;20227;-75
2024/01/15 07:31:59;;;;;;;7.83;5.50;;;;;;;0.09;100.00;96889.72;5115996;28;20473;-75
2024/01/15 07:34:25;;;;;;;9.00;5.73;;;;;;;0.06;100.00;96884.84;5115683;27;20200;-75
2024/01/15 07:36:52;;;;;;;8.70;5.33;;;;;;;0.10;100.00;96890.53;5115399;28;20205;-75
2024/01/15 07:39:18;;;;;;;9.80;5.17;;;;;;;0.12;100.00;96887.75;5115671;28;20227;-75
2024/01/15 07:41:44;;;;;;;9.10;4.90;;;;;;;0.17;100.00;96899.25;5115591;28;20206;-75
2024/01/15 07:44:11;;;;;;;13.00;6.47;;;;;;;0.09;100.00;96905.41;5115132;28;20203;-75
2024/01/15 07:46:37;;;;;;;8.00;5.13;;;;;;;0.13;100.00;96898.81;5114787;28;20242;-75
2024/01/15 07:49:05;;;;;;;9.23;5.80;;;;;;;0.21;100.00;96895.28;5115543;28;20207;-74
2024/01/15 07:51:31;;;;;;;9.40;5.40;;;;;;;0.23;100.00;96899.34;5115506;28;20199;-74
2024/01/15 07:53:58;;;;;;;8.23;5.27;;;;;;;0.19;100.00;96898.06;5115601;28;20222;-75
2024/01/15 07:56:24;;;;;;;10.17;5.60;;;;;;;0.22;100.00;96896.09;5115022;28;20203;-75
2024/01/15 07:58:50;;;;;;;9.47;5.37;;;;;;;0.27;100.00;96896.38;5115461;28;20248;-75
2024/01/15 08:01:17;;;;;;;10.70;5.90;;;;;;;0.26;100.00;96899.97;5115199;28;20223;-75
2024/01/15 08:03:43;;;;;;;13.17;6.23;;;;;;;0.23;100.00;96901.94;5115198;28;20203;-75
2024/01/15 08:06:10;;;;;;;8.50;4.93;;;;;;;0.31;100.00;96898.41;5115059;28;20203;-74
2024/01/15 08:08:40;;;;;;;8.27;5.40;;;;;;;0.28;100.00;96891.75;5115188;28;20314;-75
2024/01/15 08:11:06;;;;;;;8.83;6.17;;;;;;;0.27;100.00;96893.75;5115076;28;20225;-75
2024/01/15 08:13:33;;;;;;;8.03;5.20;;;;;;;0.32;100.00;96899.25;5115058;28;20206;-75
2024/01/15 08:15:59;;;;;;;8.10;5.30;;;;;;;0.31;100.00;96895.81;5114890;28;20305;-75
2024/01/15 08:18:25;;;;;;;9.60;5.53;;;;;;;0.38;100.00;96913.19;5114655;28;20199;-75
2024/01/15 08:20:52;;;;;;;8.93;5.73;;;;;;;0.37;100.00;96897.72;5114932;28;20582;-75
2024/01/15 08:23:19;;;;;;;8.30;5.50;;;;;;;0.37;100.00;96899.50;5114675;28;20221;-75
2024/01/15 08:25:46;;;;;;;10.27;5.93;;;;;;;0.33;100.00;96907.69;5114790;28;20206;-75
2024/01/15 08:28:12;;;;;;;7.97;5.73;;;;;;;0.40;100.00;96905.16;5114490;28;20216;-75
2024/01/15 08:30:39;;;;;;;10.20;6.40;;;;;;;0.35;100.00;96907.50;5114631;28;20223;-75
2024/01/15 08:33:05;;;;;;;9.53;5.77;;;;;;;0.46;100.00;96908.84;5114390;28;20209;-75
2024/01/15 08:35:31;;;;;;;8.37;5.70;;;;;;;0.48;100.00;96905.06;5114557;28;20230;-75
2024/01/15 08:37:58;;;;;;;10.00;6.23;;;;;;;0.54;100.00;96906.13;5115221;28;20203;-75
2024/01/15 08:40:24;;;;;;;10.03;5.93;;;;;;;0.55;100.00;96905.13;5114532;28;20266;-75
2024/01/15 08:42:51;;;;;;;8.57;5.30;;;;;;;0.57;100.00;96900.50;5114316;28;20210;-75
2024/01/15 08:45:17;;;;;;;7.67;5.10;;;;;;;0.57;100.00;96903.13;5114459;28;20203;-75
2024/01/15 08:47:44;;;;;;;9.03;4.70;;;;;;;0.65;100.00;96906.47;5114483;28;20349;-75
2024/01/15 08:50:10;;;;;;;8.40;4.70;;;;;;;0.70;100.00;96900.66;5118477;28;20219;-75
2024/01/15 08:52:38;;;;;;;7.40;5.23;;;;;;;0.73;100.00;96905.53;5114380;28;20214;-75
2024/01/15 08:55:07;;;;;;;7.40;4.20;;;;;;;0.81;100.00;96908.03;5114254;28;20608;-75
2024/01/15 08:57:33;;;;;;;9.13;4.70;;;;;;;0.87;100.00;96907.28;5114005;28;20263;-75
2024/01/15 09:00:00;;;;;;;8.37;4.70;;;;;;;0.82;100.00;96913.09;5113774;28;20589;-75
2024/01/15 09:02:26;;;;;;;7.77;4.20;;;;;;;0.87;100.00;96917.75;5114220;28;20203;-75
2024/01/15 09:04:53;;;;;;;6.53;3.83;;;;;;;0.88;100.00;96920.19;5114067;28;20686;-75
2024/01/15 09:07:19;;;;;;;6.83;3.97;;;;;;;0.97;100.00;96918.25;5114245;28;20219;-75
2024/01/15 09:09:45;;;;;;;5.73;3.67;;;;;;;0.90;100.00;96910.31;5113770;28;20565;-75
2024/01/15 09:12:15;;;;;;;8.67;4.77;;;;;;;0.95;100.00;96910.56;5113804;28;20529;-75
2024/01/15 09:14:41;;;;;;;7.53;4.00;;;;;;;0.97;100.00;96905.16;5113791;28;20696;-75
2024/01/15 09:17:08;;;;;;;7.13;4.10;;;;;;;0.97;100.00;96907.78;5114334;28;20212;-75
2024/01/15 09:19:34;;;;;;;6.57;4.40;;;;;;;0.95;100.00;96915.00;5113851;28;20223;-75
2024/01/15 09:22:00;;;;;;;6.00;3.90;;;;;;;1.00;100.00;96902.19;5113691;28;20211;-75
2024/01/15 09:24:27;;;;;;;5.97;3.87;;;;;;;1.03;100.00;96893.97;5114102;28;20203;-75
2024/01/15 09:26:53;;;;;;;5.27;3.93;;;;;;;1.09;100.00;96887.97;5113442;28;20561;-75
2024/01/15 09:29:20;;;;;;;5.87;3.97;;;;;;;1.15;100.00;96881.97;5112819;28;20227;-75
2024/01/15 09:31:46;;;;;;;8.93;4.63;;;;;;;1.07;100.00;96880.28;5113887;28;20548;-75
2024/01/15 09:34:12;;;;;;;6.47;4.20;;;;;;;1.14;100.00;96882.97;5113476;28;20666;-75
2024/01/15 09:36:42;;;;;;;6.47;3.93;;;;;;;1.22;100.00;96877.63;5113428;28;20678;-75
2024/01/15 09:39:12;;;;;;;7.77;4.07;;;;;;;1.24;100.00;96889.50;5113780;28;20215;-75
2024/01/15 09:41:39;;;;;;;6.03;3.80;;;;;;;1.33;100.00;96887.56;5113714;28;20209;-75
2024/01/15 09:44:07;;;;;;;6.17;3.70;;;;;;;1.44;100.00;96894.91;5113345;28;20203;-75
2024/01/15 09:46:34;;;;;;;6.83;3.90;;;;;;;1.43;100.00;96895.88;5113698;28;20237;-75
2024/01/15 09:49:01;;;;;;;6.00;3.60;;;;;;;1.47;100.00;96895.31;5113481;28;20239;-75
2024/01/15 09:51:31;;;;;;;5.67;4.03;;;;;;;1.37;100.00;96884.38;5113674;28;20260;-75
2024/01/15 09:53:59;;;;;;;6.13;3.60;;;;;;;1.44;100.00;96892.28;5113288;28;20217;-75
2024/01/15 09:56:25;;;;;;;7.77;3.10;;;;;;;1.33;100.00;96887.56;5113507;28;20209;-75
2024/01/15 09:58:52;;;;;;;5.17;3.47;;;;;;;1.38;100.00;96885.16;5113269;28;20670;-75
2024/01/15 10:01:21;;;;;;;5.33;3.40;;;;;;;1.46;100.00;96882.41;5113316;28;20297;-75
2024/01/15 10:03:47;;;;;;;9.50;4.20;;;;;;;1.42;100.00;96868.91;5112368;28;20199;-75
2024/01/15 10:06:18;;;;;;;6.70;3.80;;;;;;;1.45;100.00;96865.91;5113648;28;20203;-75
2024/01/15 10:08:49;;;;;;;6.70;3.90;;;;;;;1.40;100.00;96868.28;5113138;28;20262;-75
2024/01/15 10:11:16;;;;;;;6.00;3.47;;;;;;;1.48;100.00;96868.13;5113389;28;20223;-75
2024/01/15 10:13:45;;;;;;;5.30;3.23;;;;;;;1.46;100.00;96861.47;5113094;28;20207;-75
2024/01/15 10:16:11;;;;;;;6.10;3.77;;;;;;;1.61;100.00;96860.38;5113351;28;20264;-75
2024/01/15 10:18:39;;;;;;;6.17;3.50;;;;;;;1.44;100.00;96853.81;5113262;28;20656;-75
2024/01/15 10:21:07;;;;;;;5.50;3.27;;;;;;;1.52;100.00;96861.53;5113180;28;20317;-75
2024/01/15 10:23:34;;;;;;;7.13;3.80;;;;;;;1.59;100.00;96861.56;5112967;28;20211;-75
2024/01/15 10:26:01;;;;;;;6.83;3.87;;;;;;;1.53;100.00;96859.72;5114085;28;20210;-75
2024/01/15 10:28:29;;;;;;;6.83;4.37;;;;;;;1.55;100.00;96847.22;5112815;28;20230;-75
2024/01/15 10:30:58;;;;;;;4.17;3.00;;;;;;;1.60;100.00;96836.97;5112473;28;20272;-75
2024/01/15 10:33:26;;;;;;;6.00;3.53;;;;;;;1.55;100.00;96844.59;5113020;28;20254;-75
2024/01/15 10:36:00;;;;;;;5.20;3.17;;;;;;;1.54;100.00;96832.53;5113252;28;20244;-75
2024/01/15 10:38:27;;;;;;;6.17;3.10;;;;;;;1.51;100.00;96822.44;5113111;28;20297;-75
2024/01/15 10:40:55;;;;;;;6.47;3.07;;;;;;;1.58;100.00;96815.44;5114425;28;20227;-75
2024/01/15 10:43:22;;;;;;;7.57;3.53;;;;;;;1.61;100.00;96815.84;5116308;28;20229;-75
2024/01/15 10:45:50;;;;;;;6.20;2.90;;;;;;;1.67;100.00;96812.44;5117164;28;20214;-75
2024/01/15 10:48:19;;;;;;;4.10;3.03;;;;;;;1.83;100.00;96806.91;5116464;27;20222;-75
2024/01/15 10:50:46;;;;;;;4.03;3.03;;;;;;;1.77;100.00;96804.25;5116914;28;20314;-75
2024/01/15 10:53:15;;;;;;;3.93;2.57;;;;;;;1.80;100.00;96809.88;5117011;28;20199;-75
2024/01/15 10:55:42;;;;;;;2.80;2.40;;;;;;;1.83;100.00;96800.84;5116914;28;20210;-75
2024/01/15 10:58:10;;;;;;;6.60;2.90;;;;;;;1.76;100.00;96805.25;5116963;28;20199;-75
2024/01/15 11:00:37;;;;;;;5.00;3.17;;;;;;;1.70;100.00;96811.25;5116637;27;20219;-75
2024/01/15 11:03:06;;;;;;;7.33;3.10;;;;;;;1.73;100.00;96806.44;5116618;28;20211;-75
2024/01/15 11:05:39;;;;;;;4.67;3.10;;;;;;;1.76;100.00;96806.03;5116598;28;20217;-75
2024/01/15 11:08:09;;;;;;;5.63;2.80;;;;;;;1.70;100.00;96808.63;5116197;28;20221;-75
2024/01/15 11:10:51;;;;;;;4.87;2.63;;;;;;;1.72;100.00;96810.03;5116494;28;20607;-75
2024/01/15 11:13:33;;;;;;;3.83;2.73;;;;;;;1.73;100.00;96808.25;5116079;28;20207;-75
2024/01/15 11:16:13;;;;;;;4.40;2.93;;;;;;;1.78;100.00;96806.66;5116249;28;20213;-75
2024/01/15 11:18:59;;;;;;;4.43;3.00;;;;;;;1.73;100.00;96800.38;5116115;28;20197;-75
2024/01/15 11:21:27;;;;;;;4.43;3.17;;;;;;;1.51;100.00;96806.72;5115833;28;20203;-75
2024/01/15 11:23:57;;;;;;;6.77;3.10;;;;;;;1.41;100.00;96793.16;5116193;28;20195;-75